sensor_id;sensor_type;location;lat;lon;timestamp;P1;durP1;ratioP1;P2;durP2;ratioP2
11777;SDS011;5946;51.770;8.548;2024-02-26T00:02:16;3.03;;;2.47;;
11777;SDS011;5946;51.770;8.548;2024-02-26T00:04:42;1.77;;;1.67;;
11777;SDS011;5946;51.770;8.548;2024-02-26T00:07:08;2.60;;;2.03;;
11777;SDS011;5946;51.770;8.548;2024-02-26T00:09:34;2.60;;;2.00;;
11777;SDS011;5946;51.770;8.548;2024-02-26T00:12:02;2.30;;;2.10;;
11777;SDS011;5946;51.770;8.548;2024-02-26T00:14:28;2.03;;;1.73;;
11777;SDS011;5946;51.770;8.548;2024-02-26T00:16:54;2.20;;;1.90;;
11777;SDS011;5946;51.770;8.548;2024-02-26T00:19:20;3.87;;;2.13;;
11777;SDS011;5946;51.770;8.548;2024-02-26T00:21:46;2.00;;;1.70;;
11777;SDS011;5946;51.770;8.548;2024-02-26T00:24:12;2.23;;;1.80;;
11777;SDS011;5946;51.770;8.548;2024-02-26T00:26:38;2.33;;;1.70;;
11777;SDS011;5946;51.770;8.548;2024-02-26T00:29:05;1.97;;;1.70;;
11777;SDS011;5946;51.770;8.548;2024-02-26T00:31:31;2.80;;;1.77;;
11777;SDS011;5946;51.770;8.548;2024-02-26T00:33:57;2.07;;;1.50;;
11777;SDS011;5946;51.770;8.548;2024-02-26T00:36:24;3.90;;;1.73;;
11777;SDS011;5946;51.770;8.548;2024-02-26T00:38:50;1.70;;;1.60;;
11777;SDS011;5946;51.770;8.548;2024-02-26T00:41:16;1.67;;;1.57;;
11777;SDS011;5946;51.770;8.548;2024-02-26T00:43:42;2.17;;;1.50;;
11777;SDS011;5946;51.770;8.548;2024-02-26T00:46:08;2.07;;;1.43;;
11777;SDS011;5946;51.770;8.548;2024-02-26T00:48:35;1.60;;;1.50;;
11777;SDS011;5946;51.770;8.548;2024-02-26T00:51:02;1.90;;;1.47;;
11777;SDS011;5946;51.770;8.548;2024-02-26T00:53:30;2.87;;;1.63;;
11777;SDS011;5946;51.770;8.548;2024-02-26T00:55:56;4.17;;;2.10;;
11777;SDS011;5946;51.770;8.548;2024-02-26T00:58:23;2.20;;;2.00;;
11777;SDS011;5946;51.770;8.548;2024-02-26T01:00:49;1.90;;;1.67;;
11777;SDS011;5946;51.770;8.548;2024-02-26T01:03:15;2.23;;;1.67;;
11777;SDS011;5946;51.770;8.548;2024-02-26T01:05:41;2.23;;;1.90;;
11777;SDS011;5946;51.770;8.548;2024-02-26T01:08:07;2.60;;;1.90;;
11777;SDS011;5946;51.770;8.548;2024-02-26T01:10:33;1.57;;;1.47;;
11777;SDS011;5946;51.770;8.548;2024-02-26T01:12:59;1.50;;;1.37;;
11777;SDS011;5946;51.770;8.548;2024-02-26T01:15:25;1.40;;;1.20;;
11777;SDS011;5946;51.770;8.548;2024-02-26T01:17:51;1.93;;;1.30;;
11777;SDS011;5946;51.770;8.548;2024-02-26T01:20:18;2.30;;;1.43;;
11777;SDS011;5946;51.770;8.548;2024-02-26T01:22:44;2.07;;;1.40;;
11777;SDS011;5946;51.770;8.548;2024-02-26T01:25:10;2.43;;;1.30;;
11777;SDS011;5946;51.770;8.548;2024-02-26T01:27:36;1.40;;;1.30;;
11777;SDS011;5946;51.770;8.548;2024-02-26T01:30:03;2.07;;;1.50;;
11777;SDS011;5946;51.770;8.548;2024-02-26T01:32:29;1.70;;;1.60;;
11777;SDS011;5946;51.770;8.548;2024-02-26T01:34:55;1.87;;;1.47;;
11777;SDS011;5946;51.770;8.548;2024-02-26T01:37:21;1.60;;;1.50;;
11777;SDS011;5946;51.770;8.548;2024-02-26T01:39:47;1.43;;;1.33;;
11777;SDS011;5946;51.770;8.548;2024-02-26T01:42:13;2.57;;;1.73;;
11777;SDS011;5946;51.770;8.548;2024-02-26T01:44:39;1.53;;;1.37;;
11777;SDS011;5946;51.770;8.548;2024-02-26T01:47:05;2.10;;;1.63;;
11777;SDS011;5946;51.770;8.548;2024-02-26T01:49:33;2.27;;;1.47;;
11777;SDS011;5946;51.770;8.548;2024-02-26T01:52:00;1.90;;;1.47;;
11777;SDS011;5946;51.770;8.548;2024-02-26T01:54:26;2.40;;;1.60;;
11777;SDS011;5946;51.770;8.548;2024-02-26T01:56:53;2.03;;;1.83;;
11777;SDS011;5946;51.770;8.548;2024-02-26T01:59:19;3.70;;;1.77;;
11777;SDS011;5946;51.770;8.548;2024-02-26T02:01:46;2.00;;;1.53;;
11777;SDS011;5946;51.770;8.548;2024-02-26T02:04:13;1.80;;;1.70;;
11777;SDS011;5946;51.770;8.548;2024-02-26T02:06:40;2.40;;;1.73;;
11777;SDS011;5946;51.770;8.548;2024-02-26T02:09:07;1.70;;;1.60;;
11777;SDS011;5946;51.770;8.548;2024-02-26T02:11:34;2.90;;;1.70;;
11777;SDS011;5946;51.770;8.548;2024-02-26T02:14:00;2.20;;;1.70;;
11777;SDS011;5946;51.770;8.548;2024-02-26T02:16:26;3.37;;;1.77;;
11777;SDS011;5946;51.770;8.548;2024-02-26T02:18:52;1.63;;;1.53;;
11777;SDS011;5946;51.770;8.548;2024-02-26T02:21:18;1.60;;;1.50;;
11777;SDS011;5946;51.770;8.548;2024-02-26T02:23:43;2.00;;;1.47;;
11777;SDS011;5946;51.770;8.548;2024-02-26T02:26:11;2.80;;;1.80;;
11777;SDS011;5946;51.770;8.548;2024-02-26T02:28:38;1.77;;;1.67;;
11777;SDS011;5946;51.770;8.548;2024-02-26T02:31:05;1.73;;;1.57;;
11777;SDS011;5946;51.770;8.548;2024-02-26T02:33:31;1.70;;;1.60;;
11777;SDS011;5946;51.770;8.548;2024-02-26T02:35:57;1.67;;;1.57;;
11777;SDS011;5946;51.770;8.548;2024-02-26T02:38:24;1.70;;;1.50;;
11777;SDS011;5946;51.770;8.548;2024-02-26T02:40:51;1.87;;;1.60;;
11777;SDS011;5946;51.770;8.548;2024-02-26T02:43:17;2.47;;;1.70;;
11777;SDS011;5946;51.770;8.548;2024-02-26T02:45:43;2.90;;;1.97;;
11777;SDS011;5946;51.770;8.548;2024-02-26T02:48:10;2.03;;;1.40;;
11777;SDS011;5946;51.770;8.548;2024-02-26T02:50:36;1.50;;;1.40;;
11777;SDS011;5946;51.770;8.548;2024-02-26T02:53:02;2.37;;;1.70;;
11777;SDS011;5946;51.770;8.548;2024-02-26T02:55:28;1.80;;;1.70;;
11777;SDS011;5946;51.770;8.548;2024-02-26T02:57:54;2.63;;;1.60;;
11777;SDS011;5946;51.770;8.548;2024-02-26T03:00:20;1.90;;;1.80;;
11777;SDS011;5946;51.770;8.548;2024-02-26T03:02:49;2.57;;;1.80;;
11777;SDS011;5946;51.770;8.548;2024-02-26T03:05:15;2.83;;;1.70;;
11777;SDS011;5946;51.770;8.548;2024-02-26T03:07:41;1.90;;;1.40;;
11777;SDS011;5946;51.770;8.548;2024-02-26T03:10:07;1.57;;;1.40;;
11777;SDS011;5946;51.770;8.548;2024-02-26T03:12:33;2.20;;;1.40;;
11777;SDS011;5946;51.770;8.548;2024-02-26T03:15:00;1.20;;;1.10;;
11777;SDS011;5946;51.770;8.548;2024-02-26T03:17:29;1.37;;;1.20;;
11777;SDS011;5946;51.770;8.548;2024-02-26T03:19:55;1.50;;;1.10;;
11777;SDS011;5946;51.770;8.548;2024-02-26T03:22:21;0.97;;;0.93;;
11777;SDS011;5946;51.770;8.548;2024-02-26T03:24:47;1.90;;;1.40;;
11777;SDS011;5946;51.770;8.548;2024-02-26T03:27:13;2.20;;;1.30;;
11777;SDS011;5946;51.770;8.548;2024-02-26T03:29:40;1.57;;;1.20;;
11777;SDS011;5946;51.770;8.548;2024-02-26T03:32:06;1.17;;;1.07;;
11777;SDS011;5946;51.770;8.548;2024-02-26T03:34:32;1.50;;;1.40;;
11777;SDS011;5946;51.770;8.548;2024-02-26T03:37:03;1.93;;;1.10;;
11777;SDS011;5946;51.770;8.548;2024-02-26T03:39:30;1.30;;;1.20;;
11777;SDS011;5946;51.770;8.548;2024-02-26T03:41:56;1.00;;;1.00;;
11777;SDS011;5946;51.770;8.548;2024-02-26T03:44:22;1.23;;;1.13;;
11777;SDS011;5946;51.770;8.548;2024-02-26T03:46:48;1.90;;;1.40;;
11777;SDS011;5946;51.770;8.548;2024-02-26T03:49:14;1.30;;;1.20;;
11777;SDS011;5946;51.770;8.548;2024-02-26T03:51:40;2.17;;;1.27;;
11777;SDS011;5946;51.770;8.548;2024-02-26T03:54:06;1.23;;;1.13;;
11777;SDS011;5946;51.770;8.548;2024-02-26T03:56:32;1.47;;;1.17;;
11777;SDS011;5946;51.770;8.548;2024-02-26T03:58:58;1.33;;;1.10;;
11777;SDS011;5946;51.770;8.548;2024-02-26T04:01:26;2.27;;;1.30;;
11777;SDS011;5946;51.770;8.548;2024-02-26T04:03:53;1.40;;;1.30;;
11777;SDS011;5946;51.770;8.548;2024-02-26T04:06:19;1.40;;;1.17;;
11777;SDS011;5946;51.770;8.548;2024-02-26T04:08:46;1.30;;;1.20;;
11777;SDS011;5946;51.770;8.548;2024-02-26T04:11:12;2.80;;;1.47;;
11777;SDS011;5946;51.770;8.548;2024-02-26T04:13:42;1.47;;;1.37;;
11777;SDS011;5946;51.770;8.548;2024-02-26T04:16:10;2.50;;;1.00;;
11777;SDS011;5946;51.770;8.548;2024-02-26T04:18:36;1.60;;;1.20;;
11777;SDS011;5946;51.770;8.548;2024-02-26T04:21:03;1.20;;;1.10;;
11777;SDS011;5946;51.770;8.548;2024-02-26T04:23:30;1.73;;;1.40;;
11777;SDS011;5946;51.770;8.548;2024-02-26T04:25:56;2.30;;;1.53;;
11777;SDS011;5946;51.770;8.548;2024-02-26T04:28:22;3.90;;;1.40;;
11777;SDS011;5946;51.770;8.548;2024-02-26T04:30:51;1.40;;;1.30;;
11777;SDS011;5946;51.770;8.548;2024-02-26T04:33:17;1.90;;;1.37;;
11777;SDS011;5946;51.770;8.548;2024-02-26T04:35:43;2.03;;;1.27;;
11777;SDS011;5946;51.770;8.548;2024-02-26T04:38:09;2.93;;;1.40;;
11777;SDS011;5946;51.770;8.548;2024-02-26T04:40:35;2.20;;;1.37;;
11777;SDS011;5946;51.770;8.548;2024-02-26T04:43:01;1.30;;;1.20;;
11777;SDS011;5946;51.770;8.548;2024-02-26T04:45:27;3.00;;;1.40;;
11777;SDS011;5946;51.770;8.548;2024-02-26T04:47:53;2.20;;;1.30;;
11777;SDS011;5946;51.770;8.548;2024-02-26T04:50:19;1.67;;;1.30;;
11777;SDS011;5946;51.770;8.548;2024-02-26T04:52:44;2.00;;;1.50;;
11777;SDS011;5946;51.770;8.548;2024-02-26T04:55:10;2.00;;;1.30;;
11777;SDS011;5946;51.770;8.548;2024-02-26T04:57:36;1.93;;;1.50;;
11777;SDS011;5946;51.770;8.548;2024-02-26T05:00:03;1.67;;;1.40;;
11777;SDS011;5946;51.770;8.548;2024-02-26T05:02:30;2.30;;;1.77;;
11777;SDS011;5946;51.770;8.548;2024-02-26T05:04:58;3.73;;;2.20;;
11777;SDS011;5946;51.770;8.548;2024-02-26T05:07:24;2.90;;;1.80;;
11777;SDS011;5946;51.770;8.548;2024-02-26T05:09:50;2.23;;;1.77;;
11777;SDS011;5946;51.770;8.548;2024-02-26T05:12:16;1.73;;;1.63;;
11777;SDS011;5946;51.770;8.548;2024-02-26T05:14:42;2.67;;;1.53;;
11777;SDS011;5946;51.770;8.548;2024-02-26T05:17:08;2.53;;;1.80;;
11777;SDS011;5946;51.770;8.548;2024-02-26T05:19:34;2.10;;;1.60;;
11777;SDS011;5946;51.770;8.548;2024-02-26T05:22:00;2.00;;;1.70;;
11777;SDS011;5946;51.770;8.548;2024-02-26T05:24:25;2.23;;;1.70;;
11777;SDS011;5946;51.770;8.548;2024-02-26T05:26:53;2.10;;;1.53;;
11777;SDS011;5946;51.770;8.548;2024-02-26T05:29:20;2.03;;;1.60;;
11777;SDS011;5946;51.770;8.548;2024-02-26T05:31:45;1.63;;;1.53;;
11777;SDS011;5946;51.770;8.548;2024-02-26T05:34:11;6.20;;;1.50;;
11777;SDS011;5946;51.770;8.548;2024-02-26T05:36:37;1.60;;;1.50;;
11777;SDS011;5946;51.770;8.548;2024-02-26T05:39:04;1.70;;;1.60;;
11777;SDS011;5946;51.770;8.548;2024-02-26T05:41:30;2.33;;;1.90;;
11777;SDS011;5946;51.770;8.548;2024-02-26T05:43:56;2.80;;;1.77;;
11777;SDS011;5946;51.770;8.548;2024-02-26T05:46:22;2.93;;;1.80;;
11777;SDS011;5946;51.770;8.548;2024-02-26T05:48:50;2.77;;;2.17;;
11777;SDS011;5946;51.770;8.548;2024-02-26T05:51:16;2.07;;;1.87;;
11777;SDS011;5946;51.770;8.548;2024-02-26T05:53:42;1.90;;;1.80;;
11777;SDS011;5946;51.770;8.548;2024-02-26T05:56:08;1.97;;;1.80;;
11777;SDS011;5946;51.770;8.548;2024-02-26T05:58:34;2.47;;;2.17;;
11777;SDS011;5946;51.770;8.548;2024-02-26T06:01:00;5.40;;;1.90;;
11777;SDS011;5946;51.770;8.548;2024-02-26T06:03:26;3.23;;;2.30;;
11777;SDS011;5946;51.770;8.548;2024-02-26T06:05:52;2.90;;;2.10;;
11777;SDS011;5946;51.770;8.548;2024-02-26T06:08:18;2.00;;;1.80;;
11777;SDS011;5946;51.770;8.548;2024-02-26T06:10:44;2.20;;;2.00;;
11777;SDS011;5946;51.770;8.548;2024-02-26T06:13:10;2.20;;;2.00;;
11777;SDS011;5946;51.770;8.548;2024-02-26T06:15:36;2.37;;;2.00;;
11777;SDS011;5946;51.770;8.548;2024-02-26T06:18:02;2.50;;;2.20;;
11777;SDS011;5946;51.770;8.548;2024-02-26T06:20:28;3.07;;;2.70;;
11777;SDS011;5946;51.770;8.548;2024-02-26T06:22:54;5.10;;;2.57;;
11777;SDS011;5946;51.770;8.548;2024-02-26T06:25:20;3.13;;;2.60;;
11777;SDS011;5946;51.770;8.548;2024-02-26T06:27:46;2.80;;;2.20;;
11777;SDS011;5946;51.770;8.548;2024-02-26T06:30:12;4.80;;;2.23;;
11777;SDS011;5946;51.770;8.548;2024-02-26T06:32:38;3.40;;;2.23;;
11777;SDS011;5946;51.770;8.548;2024-02-26T06:35:04;2.43;;;2.23;;
11777;SDS011;5946;51.770;8.548;2024-02-26T06:37:32;3.07;;;2.10;;
11777;SDS011;5946;51.770;8.548;2024-02-26T06:39:59;2.50;;;2.00;;
11777;SDS011;5946;51.770;8.548;2024-02-26T06:42:25;2.93;;;2.10;;
11777;SDS011;5946;51.770;8.548;2024-02-26T06:44:51;4.20;;;2.23;;
11777;SDS011;5946;51.770;8.548;2024-02-26T06:47:17;3.07;;;1.80;;
11777;SDS011;5946;51.770;8.548;2024-02-26T06:49:44;2.50;;;1.80;;
11777;SDS011;5946;51.770;8.548;2024-02-26T06:52:10;1.77;;;1.50;;
11777;SDS011;5946;51.770;8.548;2024-02-26T06:54:36;2.33;;;1.70;;
11777;SDS011;5946;51.770;8.548;2024-02-26T06:57:02;2.30;;;1.93;;
11777;SDS011;5946;51.770;8.548;2024-02-26T06:59:28;1.90;;;1.73;;
11777;SDS011;5946;51.770;8.548;2024-02-26T07:01:54;2.27;;;1.50;;
11777;SDS011;5946;51.770;8.548;2024-02-26T07:04:20;2.03;;;1.70;;
11777;SDS011;5946;51.770;8.548;2024-02-26T07:06:46;2.23;;;1.80;;
11777;SDS011;5946;51.770;8.548;2024-02-26T07:09:12;4.50;;;2.53;;
11777;SDS011;5946;51.770;8.548;2024-02-26T07:11:38;4.13;;;2.40;;
11777;SDS011;5946;51.770;8.548;2024-02-26T07:14:07;4.63;;;2.10;;
11777;SDS011;5946;51.770;8.548;2024-02-26T07:16:33;2.73;;;2.27;;
11777;SDS011;5946;51.770;8.548;2024-02-26T07:18:59;3.10;;;2.50;;
11777;SDS011;5946;51.770;8.548;2024-02-26T07:21:25;3.67;;;2.47;;
11777;SDS011;5946;51.770;8.548;2024-02-26T07:23:52;2.40;;;2.20;;
11777;SDS011;5946;51.770;8.548;2024-02-26T07:26:18;3.47;;;2.20;;
11777;SDS011;5946;51.770;8.548;2024-02-26T07:28:44;4.60;;;2.43;;
11777;SDS011;5946;51.770;8.548;2024-02-26T07:31:10;2.87;;;1.93;;
11777;SDS011;5946;51.770;8.548;2024-02-26T07:33:36;3.90;;;2.00;;
11777;SDS011;5946;51.770;8.548;2024-02-26T07:36:02;3.73;;;2.27;;
11777;SDS011;5946;51.770;8.548;2024-02-26T07:38:28;6.83;;;3.50;;
11777;SDS011;5946;51.770;8.548;2024-02-26T07:40:54;13.03;;;4.30;;
11777;SDS011;5946;51.770;8.548;2024-02-26T07:43:21;4.83;;;2.87;;
11777;SDS011;5946;51.770;8.548;2024-02-26T07:45:47;4.20;;;2.80;;
11777;SDS011;5946;51.770;8.548;2024-02-26T07:48:13;5.93;;;2.07;;
11777;SDS011;5946;51.770;8.548;2024-02-26T07:50:39;3.20;;;2.23;;
11777;SDS011;5946;51.770;8.548;2024-02-26T07:53:05;2.40;;;2.00;;
11777;SDS011;5946;51.770;8.548;2024-02-26T07:55:31;3.03;;;2.30;;
11777;SDS011;5946;51.770;8.548;2024-02-26T07:57:57;3.13;;;2.27;;
11777;SDS011;5946;51.770;8.548;2024-02-26T08:00:23;2.67;;;2.00;;
11777;SDS011;5946;51.770;8.548;2024-02-26T08:02:49;2.80;;;1.60;;
11777;SDS011;5946;51.770;8.548;2024-02-26T08:05:15;2.40;;;1.83;;
11777;SDS011;5946;51.770;8.548;2024-02-26T08:07:41;4.60;;;2.60;;
11777;SDS011;5946;51.770;8.548;2024-02-26T08:10:07;4.50;;;2.97;;
11777;SDS011;5946;51.770;8.548;2024-02-26T08:12:33;3.10;;;2.80;;
11777;SDS011;5946;51.770;8.548;2024-02-26T08:15:00;5.87;;;2.70;;
11777;SDS011;5946;51.770;8.548;2024-02-26T08:17:26;3.97;;;2.80;;
11777;SDS011;5946;51.770;8.548;2024-02-26T08:19:52;3.97;;;2.70;;
11777;SDS011;5946;51.770;8.548;2024-02-26T08:22:18;4.17;;;2.87;;
11777;SDS011;5946;51.770;8.548;2024-02-26T08:24:44;3.80;;;2.73;;
11777;SDS011;5946;51.770;8.548;2024-02-26T08:27:10;4.57;;;3.70;;
11777;SDS011;5946;51.770;8.548;2024-02-26T08:29:36;8.33;;;6.27;;
11777;SDS011;5946;51.770;8.548;2024-02-26T08:32:02;4.63;;;3.73;;
11777;SDS011;5946;51.770;8.548;2024-02-26T08:34:28;7.73;;;5.53;;
11777;SDS011;5946;51.770;8.548;2024-02-26T08:36:54;5.27;;;3.70;;
11777;SDS011;5946;51.770;8.548;2024-02-26T08:39:20;5.47;;;4.37;;
11777;SDS011;5946;51.770;8.548;2024-02-26T08:41:46;5.57;;;4.00;;
11777;SDS011;5946;51.770;8.548;2024-02-26T08:44:12;3.70;;;3.00;;
11777;SDS011;5946;51.770;8.548;2024-02-26T08:46:37;5.70;;;4.37;;
11777;SDS011;5946;51.770;8.548;2024-02-26T08:49:03;5.87;;;4.40;;
11777;SDS011;5946;51.770;8.548;2024-02-26T08:51:29;7.80;;;5.83;;
11777;SDS011;5946;51.770;8.548;2024-02-26T08:53:55;5.03;;;3.43;;
11777;SDS011;5946;51.770;8.548;2024-02-26T08:56:21;7.73;;;6.57;;
11777;SDS011;5946;51.770;8.548;2024-02-26T08:58:48;7.90;;;4.90;;
11777;SDS011;5946;51.770;8.548;2024-02-26T09:01:15;5.17;;;3.17;;
11777;SDS011;5946;51.770;8.548;2024-02-26T09:03:41;8.57;;;7.83;;
11777;SDS011;5946;51.770;8.548;2024-02-26T09:06:08;3.67;;;2.80;;
11777;SDS011;5946;51.770;8.548;2024-02-26T09:08:34;2.80;;;2.43;;
11777;SDS011;5946;51.770;8.548;2024-02-26T09:11:03;5.87;;;4.37;;
11777;SDS011;5946;51.770;8.548;2024-02-26T09:13:29;5.20;;;4.70;;
11777;SDS011;5946;51.770;8.548;2024-02-26T09:15:55;3.70;;;3.30;;
11777;SDS011;5946;51.770;8.548;2024-02-26T09:18:21;3.80;;;2.60;;
11777;SDS011;5946;51.770;8.548;2024-02-26T09:20:47;3.10;;;2.13;;
11777;SDS011;5946;51.770;8.548;2024-02-26T09:23:13;3.03;;;2.57;;
11777;SDS011;5946;51.770;8.548;2024-02-26T09:25:39;3.40;;;2.53;;
11777;SDS011;5946;51.770;8.548;2024-02-26T09:28:05;3.80;;;2.70;;
11777;SDS011;5946;51.770;8.548;2024-02-26T09:30:31;4.30;;;2.63;;
11777;SDS011;5946;51.770;8.548;2024-02-26T09:32:57;3.07;;;2.20;;
11777;SDS011;5946;51.770;8.548;2024-02-26T09:35:22;2.80;;;2.30;;
11777;SDS011;5946;51.770;8.548;2024-02-26T09:37:48;3.40;;;2.47;;
11777;SDS011;5946;51.770;8.548;2024-02-26T09:40:14;2.83;;;2.40;;
11777;SDS011;5946;51.770;8.548;2024-02-26T09:42:44;2.40;;;2.20;;
11777;SDS011;5946;51.770;8.548;2024-02-26T09:45:21;3.23;;;2.30;;
11777;SDS011;5946;51.770;8.548;2024-02-26T09:47:47;3.20;;;2.20;;
11777;SDS011;5946;51.770;8.548;2024-02-26T09:50:15;2.70;;;2.20;;
11777;SDS011;5946;51.770;8.548;2024-02-26T09:52:42;3.10;;;2.00;;
11777;SDS011;5946;51.770;8.548;2024-02-26T09:55:09;3.10;;;2.20;;
11777;SDS011;5946;51.770;8.548;2024-02-26T09:57:36;2.40;;;2.20;;
11777;SDS011;5946;51.770;8.548;2024-02-26T10:00:03;2.80;;;2.00;;
11777;SDS011;5946;51.770;8.548;2024-02-26T10:02:31;2.30;;;2.10;;
11777;SDS011;5946;51.770;8.548;2024-02-26T10:04:59;5.30;;;2.40;;
11777;SDS011;5946;51.770;8.548;2024-02-26T10:07:26;3.47;;;2.50;;
11777;SDS011;5946;51.770;8.548;2024-02-26T10:09:55;3.03;;;2.50;;
11777;SDS011;5946;51.770;8.548;2024-02-26T10:12:21;3.23;;;2.50;;
11777;SDS011;5946;51.770;8.548;2024-02-26T10:14:47;4.90;;;2.63;;
11777;SDS011;5946;51.770;8.548;2024-02-26T10:17:13;3.03;;;2.70;;
11777;SDS011;5946;51.770;8.548;2024-02-26T10:19:39;4.27;;;2.77;;
11777;SDS011;5946;51.770;8.548;2024-02-26T10:22:05;3.67;;;2.87;;
11777;SDS011;5946;51.770;8.548;2024-02-26T10:24:31;4.23;;;2.87;;
11777;SDS011;5946;51.770;8.548;2024-02-26T10:26:57;6.03;;;3.27;;
11777;SDS011;5946;51.770;8.548;2024-02-26T10:29:24;4.10;;;2.53;;
11777;SDS011;5946;51.770;8.548;2024-02-26T10:31:51;5.07;;;2.90;;
11777;SDS011;5946;51.770;8.548;2024-02-26T10:34:17;5.17;;;3.10;;
11777;SDS011;5946;51.770;8.548;2024-02-26T10:36:43;3.77;;;2.97;;
11777;SDS011;5946;51.770;8.548;2024-02-26T10:39:10;6.10;;;3.50;;
11777;SDS011;5946;51.770;8.548;2024-02-26T10:41:37;3.70;;;3.00;;
11777;SDS011;5946;51.770;8.548;2024-02-26T10:44:03;4.37;;;2.97;;
11777;SDS011;5946;51.770;8.548;2024-02-26T10:46:29;3.43;;;3.00;;
11777;SDS011;5946;51.770;8.548;2024-02-26T10:48:55;3.00;;;2.70;;
11777;SDS011;5946;51.770;8.548;2024-02-26T10:51:24;4.07;;;2.93;;
11777;SDS011;5946;51.770;8.548;2024-02-26T10:53:52;3.43;;;2.70;;
11777;SDS011;5946;51.770;8.548;2024-02-26T10:56:21;4.40;;;2.90;;
11777;SDS011;5946;51.770;8.548;2024-02-26T10:58:50;2.90;;;2.60;;
11777;SDS011;5946;51.770;8.548;2024-02-26T11:01:16;2.93;;;2.63;;
11777;SDS011;5946;51.770;8.548;2024-02-26T11:03:44;4.07;;;3.20;;
11777;SDS011;5946;51.770;8.548;2024-02-26T11:06:10;3.87;;;2.80;;
11777;SDS011;5946;51.770;8.548;2024-02-26T11:08:37;3.60;;;3.10;;
11777;SDS011;5946;51.770;8.548;2024-02-26T11:11:03;5.73;;;3.40;;
11777;SDS011;5946;51.770;8.548;2024-02-26T11:13:30;3.73;;;3.10;;
11777;SDS011;5946;51.770;8.548;2024-02-26T11:15:56;3.97;;;3.50;;
11777;SDS011;5946;51.770;8.548;2024-02-26T11:18:23;3.83;;;3.43;;
11777;SDS011;5946;51.770;8.548;2024-02-26T11:20:49;4.13;;;3.43;;
11777;SDS011;5946;51.770;8.548;2024-02-26T11:23:16;4.20;;;3.73;;
11777;SDS011;5946;51.770;8.548;2024-02-26T11:25:42;6.77;;;3.77;;
11777;SDS011;5946;51.770;8.548;2024-02-26T11:28:10;4.07;;;3.47;;
11777;SDS011;5946;51.770;8.548;2024-02-26T11:30:38;6.37;;;3.40;;
11777;SDS011;5946;51.770;8.548;2024-02-26T11:33:08;4.30;;;3.60;;
11777;SDS011;5946;51.770;8.548;2024-02-26T11:35:37;4.93;;;3.20;;
11777;SDS011;5946;51.770;8.548;2024-02-26T11:38:03;4.87;;;3.60;;
11777;SDS011;5946;51.770;8.548;2024-02-26T11:40:30;5.07;;;3.77;;
11777;SDS011;5946;51.770;8.548;2024-02-26T11:42:57;5.47;;;4.03;;
11777;SDS011;5946;51.770;8.548;2024-02-26T11:50:41;6.50;;;3.93;;
11777;SDS011;5946;51.770;8.548;2024-02-26T11:58:38;8.87;;;4.53;;
11777;SDS011;5946;51.770;8.548;2024-02-26T12:01:04;5.53;;;4.63;;
11777;SDS011;5946;51.770;8.548;2024-02-26T12:03:30;6.27;;;4.73;;
11777;SDS011;5946;51.770;8.548;2024-02-26T12:05:56;6.17;;;4.73;;
11777;SDS011;5946;51.770;8.548;2024-02-26T12:08:22;6.17;;;4.43;;
11777;SDS011;5946;51.770;8.548;2024-02-26T12:10:50;5.67;;;4.60;;
11777;SDS011;5946;51.770;8.548;2024-02-26T12:13:19;5.47;;;4.90;;
11777;SDS011;5946;51.770;8.548;2024-02-26T12:15:54;6.73;;;5.30;;
11777;SDS011;5946;51.770;8.548;2024-02-26T12:18:20;6.03;;;4.77;;
11777;SDS011;5946;51.770;8.548;2024-02-26T12:20:57;6.03;;;5.27;;
11777;SDS011;5946;51.770;8.548;2024-02-26T12:23:24;9.20;;;5.87;;
11777;SDS011;5946;51.770;8.548;2024-02-26T12:25:50;6.77;;;5.70;;
11777;SDS011;5946;51.770;8.548;2024-02-26T12:28:16;7.07;;;5.73;;
11777;SDS011;5946;51.770;8.548;2024-02-26T12:30:42;7.00;;;5.77;;
11777;SDS011;5946;51.770;8.548;2024-02-26T12:33:08;7.40;;;5.80;;
11777;SDS011;5946;51.770;8.548;2024-02-26T12:35:34;6.90;;;5.77;;
11777;SDS011;5946;51.770;8.548;2024-02-26T12:38:00;6.90;;;6.03;;
11777;SDS011;5946;51.770;8.548;2024-02-26T12:40:27;8.00;;;6.97;;
11777;SDS011;5946;51.770;8.548;2024-02-26T12:42:54;9.00;;;7.20;;
11777;SDS011;5946;51.770;8.548;2024-02-26T12:45:22;10.57;;;7.17;;
11777;SDS011;5946;51.770;8.548;2024-02-26T12:47:49;8.57;;;6.97;;
11777;SDS011;5946;51.770;8.548;2024-02-26T12:50:15;10.37;;;7.77;;
11777;SDS011;5946;51.770;8.548;2024-02-26T12:52:42;9.87;;;7.63;;
11777;SDS011;5946;51.770;8.548;2024-02-26T12:55:09;16.47;;;13.50;;
11777;SDS011;5946;51.770;8.548;2024-02-26T12:57:36;9.73;;;6.70;;
11777;SDS011;5946;51.770;8.548;2024-02-26T13:00:04;8.00;;;7.07;;
11777;SDS011;5946;51.770;8.548;2024-02-26T13:02:31;8.50;;;7.03;;
11777;SDS011;5946;51.770;8.548;2024-02-26T13:04:58;12.00;;;7.20;;
11777;SDS011;5946;51.770;8.548;2024-02-26T13:07:26;8.33;;;7.30;;
11777;SDS011;5946;51.770;8.548;2024-02-26T13:09:52;8.30;;;6.97;;
11777;SDS011;5946;51.770;8.548;2024-02-26T13:12:18;8.97;;;7.33;;
11777;SDS011;5946;51.770;8.548;2024-02-26T13:14:44;10.50;;;7.07;;
11777;SDS011;5946;51.770;8.548;2024-02-26T13:17:10;9.53;;;6.93;;
11777;SDS011;5946;51.770;8.548;2024-02-26T13:19:36;9.73;;;6.90;;
11777;SDS011;5946;51.770;8.548;2024-02-26T13:22:05;7.87;;;6.37;;
11777;SDS011;5946;51.770;8.548;2024-02-26T13:24:32;9.20;;;7.07;;
11777;SDS011;5946;51.770;8.548;2024-02-26T13:26:58;8.33;;;6.33;;
11777;SDS011;5946;51.770;8.548;2024-02-26T13:29:24;7.97;;;6.83;;
11777;SDS011;5946;51.770;8.548;2024-02-26T13:31:53;8.30;;;6.13;;
11777;SDS011;5946;51.770;8.548;2024-02-26T13:34:28;9.27;;;6.03;;
11777;SDS011;5946;51.770;8.548;2024-02-26T13:36:56;6.93;;;6.00;;
11777;SDS011;5946;51.770;8.548;2024-02-26T13:39:22;6.97;;;5.90;;
11777;SDS011;5946;51.770;8.548;2024-02-26T13:41:49;6.20;;;5.53;;
11777;SDS011;5946;51.770;8.548;2024-02-26T13:44:15;9.27;;;5.70;;
11777;SDS011;5946;51.770;8.548;2024-02-26T13:46:41;7.57;;;5.43;;
11777;SDS011;5946;51.770;8.548;2024-02-26T13:49:08;7.17;;;5.60;;
11777;SDS011;5946;51.770;8.548;2024-02-26T13:51:34;5.77;;;4.87;;
11777;SDS011;5946;51.770;8.548;2024-02-26T13:54:01;6.83;;;5.57;;
11777;SDS011;5946;51.770;8.548;2024-02-26T13:56:27;7.67;;;4.90;;
11777;SDS011;5946;51.770;8.548;2024-02-26T13:58:53;6.27;;;4.57;;
11777;SDS011;5946;51.770;8.548;2024-02-26T14:01:19;5.40;;;4.47;;
11777;SDS011;5946;51.770;8.548;2024-02-26T14:03:45;5.70;;;4.33;;
11777;SDS011;5946;51.770;8.548;2024-02-26T14:06:11;4.57;;;4.03;;
11777;SDS011;5946;51.770;8.548;2024-02-26T14:08:37;4.90;;;3.97;;
11777;SDS011;5946;51.770;8.548;2024-02-26T14:11:03;4.53;;;4.10;;
11777;SDS011;5946;51.770;8.548;2024-02-26T14:13:29;6.60;;;4.20;;
11777;SDS011;5946;51.770;8.548;2024-02-26T14:15:55;6.70;;;4.57;;
11777;SDS011;5946;51.770;8.548;2024-02-26T14:18:21;5.30;;;4.00;;
11777;SDS011;5946;51.770;8.548;2024-02-26T14:20:47;5.53;;;3.80;;
11777;SDS011;5946;51.770;8.548;2024-02-26T14:23:13;5.67;;;4.20;;
11777;SDS011;5946;51.770;8.548;2024-02-26T14:25:39;5.60;;;4.10;;
11777;SDS011;5946;51.770;8.548;2024-02-26T14:28:05;6.53;;;4.10;;
11777;SDS011;5946;51.770;8.548;2024-02-26T14:30:31;4.50;;;3.60;;
11777;SDS011;5946;51.770;8.548;2024-02-26T14:32:57;6.37;;;4.27;;
11777;SDS011;5946;51.770;8.548;2024-02-26T14:35:23;5.50;;;3.80;;
11777;SDS011;5946;51.770;8.548;2024-02-26T14:37:51;4.77;;;3.80;;
11777;SDS011;5946;51.770;8.548;2024-02-26T14:40:17;6.53;;;4.33;;
11777;SDS011;5946;51.770;8.548;2024-02-26T14:42:44;6.47;;;4.37;;
11777;SDS011;5946;51.770;8.548;2024-02-26T14:45:10;6.40;;;4.40;;
11777;SDS011;5946;51.770;8.548;2024-02-26T14:47:36;7.97;;;4.40;;
11777;SDS011;5946;51.770;8.548;2024-02-26T14:50:02;6.03;;;4.20;;
11777;SDS011;5946;51.770;8.548;2024-02-26T14:52:28;5.40;;;4.20;;
11777;SDS011;5946;51.770;8.548;2024-02-26T14:54:54;5.90;;;4.40;;
11777;SDS011;5946;51.770;8.548;2024-02-26T14:57:20;6.07;;;4.53;;
11777;SDS011;5946;51.770;8.548;2024-02-26T14:59:46;7.77;;;4.70;;
11777;SDS011;5946;51.770;8.548;2024-02-26T15:02:14;6.07;;;4.30;;
11777;SDS011;5946;51.770;8.548;2024-02-26T15:04:40;6.03;;;4.70;;
11777;SDS011;5946;51.770;8.548;2024-02-26T15:07:05;6.63;;;4.00;;